Thomson Spirit — 9HA2336 — position and weather

sailwx.info

Track history (hours):
 
Tides and Currents Weather Stations Pressure Air Temp Water Temp Dewpoint Dewpoint Depression Visibility Wind Speed Wind Dir Waves Ship Positions

Thomson Spirit

Last reported at 2016-May-24 22:21 UTC. Time now 2016-May-25 05:21 UTC.
Position N 37°40' W 009°22'.

Length 214 m; draft 8 m.

Type: Passenger vessel. MMSI: 248368000.

Date/timePositionNaut miles runAvg speedWind from/ knotsBaromVisibWave heightAir tempDewpointWater temp
2016-May-24 22:21N 37°40' W 009°22'911.0
2016-May-24 21:33N 37°49' W 009°24'1110.9
2016-May-24 20:33N 37°59' W 009°26'2412.3
2016-May-24 18:33N 38°24' W 009°30'1312.6
2016-May-24 17:32N 38°35' W 009°24'1111.6
2016-May-24 16:33N 38°41' W 009°12'4 3.4
2016-May-24 15:32N 38°43' W 009°07'0 0.0
2016-May-24 14:23N 38°43' W 009°07'0 0.0
2016-May-24 12:31N 38°43' W 009°07'0 0.0
2016-May-24 11:26N 38°43' W 009°07'0 0.0
2016-May-24 10:25N 38°43' W 009°07'0 0.0
2016-May-24 08:31N 38°43' W 009°07'0 0.0
2016-May-24 07:29N 38°43' W 009°07'0 0.0
2016-May-24 06:31N 38°43' W 009°07'4 4.0
2016-May-24 05:33N 38°41' W 009°12'10 9.5
2016-May-24 04:33N 38°37' W 009°23'1111.5
2016-May-24 03:33N 38°29' W 009°33'1212.0
2016-May-24 02:33N 38°17' W 009°31'1312.4
2016-May-24 01:33N 38°04' W 009°30'1212.6
2016-May-24 00:33N 37°52' W 009°28'1312.6
2016-May-23 23:33N 37°39' W 009°26'1312.5
2016-May-23 22:32N 37°27' W 009°24'1312.5
2016-May-23 21:31N 37°14' W 009°23'1212.6
2016-May-23 20:33N 37°02' W 009°21'1312.0
2016-May-23 19:27N 36°50' W 009°16'1112.0
2016-May-23 18:34N 36°44' W 009°04'1313.0
2016-May-23 17:33N 36°44' W 008°48'1212.1
2016-May-23 16:33N 36°44' W 008°33'1212.3
2016-May-23 15:33N 36°44' W 008°17'1312.5
2016-May-23 14:33N 36°43' W 008°02'1212.3
2016-May-23 13:33N 36°43' W 007°47'1212.1
2016-May-23 12:33N 36°43' W 007°32'1212.3
2016-May-23 11:33N 36°36' W 007°19'1512.6
2016-May-23 10:22N 36°27' W 007°03'1112.4
2016-May-23 09:30N 36°21' W 006°53'7312.2
2016-May-23 03:33N 36°01' W 005°26'9 0.3
2016-May-21 17:33N 35°56' W 005°16'3 3.4
2016-May-21 16:33N 35°54' W 005°19'0 0.0
2016-May-21 15:31N 35°54' W 005°19'0 0.0
2016-May-21 14:30N 35°54' W 005°19'0 0.0
2016-May-21 13:28N 35°54' W 005°19'0 0.0
2016-May-21 12:33N 35°54' W 005°19'0 0.0
2016-May-21 11:31N 35°54' W 005°19'0 0.0
2016-May-21 10:33N 35°54' W 005°19'0 0.0
2016-May-21 09:30N 35°54' W 005°19'0 0.0
2016-May-21 08:30N 35°54' W 005°19'0 0.0
2016-May-21 07:33N 35°54' W 005°19'0 0.0
2016-May-21 06:33N 35°54' W 005°19'220 7.5
2016-May-20 01:14N 37°16' W 001°06'1117.2
2016-May-20 00:33N 37°23' W 000°54'1817.5
2016-May-19 23:33N 37°33' W 000°36'1717.4
2016-May-19 22:33N 37°43' W 000°18'2517.0
2016-May-19 21:05N 37°56' E 000°10'8017.2
2016-May-19 16:27N 38°37' E 001°36'18 1.6
2016-May-19 04:33N 38°56' E 001°34'2812.5
2016-May-19 02:21N 39°21' E 001°47'1012.6
2016-May-19 01:33N 39°31' E 001°50'1312.5
2016-May-19 00:33N 39°43' E 001°53'1312.8
2016-May-18 23:33N 39°56' E 001°55'1212.3
2016-May-18 22:33N 40°08' E 001°59'1211.9
2016-May-18 21:33N 40°20' E 002°02'1212.1
2016-May-18 20:33N 40°31' E 002°05'1212.3
2016-May-18 19:33N 40°43' E 002°08'1212.5
2016-May-18 18:33N 40°55' E 002°12'1312.6
2016-May-18 17:33N 41°08' E 002°15'1411.4
2016-May-18 16:21N 41°21' E 002°11'1 0.2
2016-May-18 11:07N 41°22' E 002°11'7 1.1
2016-May-18 04:20N 41°16' E 002°16'1214.8
2016-May-18 03:33N 41°05' E 002°17'1514.8
2016-May-18 02:33N 40°50' E 002°16'1514.5
2016-May-18 01:33N 40°35' E 002°16'1413.7
2016-May-18 00:33N 40°22' E 002°16'1313.2
2016-May-17 23:33N 40°08' E 002°15'1313.5
2016-May-17 22:33N 39°55' E 002°16'1614.2
2016-May-17 21:26N 39°39' E 002°15'1112.4
2016-May-17 20:33N 39°29' E 002°22'1110.7
2016-May-17 19:33N 39°29' E 002°35'5 4.6
2016-May-17 18:28N 39°33' E 002°38'0 0.0
2016-May-17 17:31N 39°33' E 002°38'0 0.0
2016-May-17 16:31N 39°33' E 002°38'0 0.0
2016-May-17 15:31N 39°33' E 002°38'0 0.0
2016-May-17 14:32N 39°33' E 002°38'0 0.0
2016-May-17 13:32N 39°33' E 002°38'0 0.0
2016-May-17 12:31N 39°33' E 002°38'0 0.0
2016-May-17 11:29N 39°33' E 002°38'0 0.0
2016-May-17 10:32N 39°33' E 002°38'0 0.0
2016-May-17 09:32N 39°33' E 002°38'0 0.0
2016-May-17 08:31N 39°33' E 002°38'0 0.0
2016-May-17 07:32N 39°33' E 002°38'0 0.0
2016-May-17 06:32N 39°33' E 002°38'0 0.0
2016-May-17 05:33N 39°33' E 002°38'6 6.1
2016-May-17 04:33N 39°28' E 002°34'1212.1
2016-May-17 03:33N 39°19' E 002°24'1413.5
2016-May-17 02:33N 39°08' E 002°13'1312.9
2016-May-17 01:33N 38°58' E 002°02'1312.7
2016-May-17 00:31N 38°48' E 001°51'10913.4
2016-May-16 16:24N 37°41' E 000°02'1113.5
2016-May-16 15:33N 37°34' W 000°09'1313.0
2016-May-16 14:33N 37°27' W 000°23'1812.9
2016-May-16 13:08N 37°16' W 000°41'712.7
2016-May-16 12:33N 37°11' W 000°48'1312.8
2016-May-16 11:33N 37°04' W 001°01'  
Track history (hours):
 
Tides and Currents Weather Stations Pressure Air Temp Water Temp Dewpoint Dewpoint Depression Visibility Wind Speed Wind Dir Waves Ship Positions

Thomson Spirit

Last reported at 2016-May-24 22:21 UTC. Time now 2016-May-25 05:21 UTC.
Position N 37°40' W 009°22'.

Length 214 m; draft 8 m.

Type: Passenger vessel. MMSI: 248368000.

Date/timePositionNaut miles runAvg speedWind from/ knotsBaromVisibWave heightAir tempDewpointWater temp
2016-May-24 22:21N 37°40' W 009°22'911.0
2016-May-24 21:33N 37°49' W 009°24'1110.9
2016-May-24 20:33N 37°59' W 009°26'2412.3
2016-May-24 18:33N 38°24' W 009°30'1312.6
2016-May-24 17:32N 38°35' W 009°24'1111.6
2016-May-24 16:33N 38°41' W 009°12'4 3.4
2016-May-24 15:32N 38°43' W 009°07'0 0.0
2016-May-24 14:23N 38°43' W 009°07'0 0.0
2016-May-24 12:31N 38°43' W 009°07'0 0.0
2016-May-24 11:26N 38°43' W 009°07'0 0.0
2016-May-24 10:25N 38°43' W 009°07'0 0.0
2016-May-24 08:31N 38°43' W 009°07'0 0.0
2016-May-24 07:29N 38°43' W 009°07'0 0.0
2016-May-24 06:31N 38°43' W 009°07'4 4.0
2016-May-24 05:33N 38°41' W 009°12'10 9.5
2016-May-24 04:33N 38°37' W 009°23'1111.5
2016-May-24 03:33N 38°29' W 009°33'1212.0
2016-May-24 02:33N 38°17' W 009°31'1312.4
2016-May-24 01:33N 38°04' W 009°30'1212.6
2016-May-24 00:33N 37°52' W 009°28'1312.6
2016-May-23 23:33N 37°39' W 009°26'1312.5
2016-May-23 22:32N 37°27' W 009°24'1312.5
2016-May-23 21:31N 37°14' W 009°23'1212.6
2016-May-23 20:33N 37°02' W 009°21'1312.0
2016-May-23 19:27N 36°50' W 009°16'1112.0
2016-May-23 18:34N 36°44' W 009°04'1313.0
2016-May-23 17:33N 36°44' W 008°48'1212.1
2016-May-23 16:33N 36°44' W 008°33'1212.3
2016-May-23 15:33N 36°44' W 008°17'1312.5
2016-May-23 14:33N 36°43' W 008°02'1212.3
2016-May-23 13:33N 36°43' W 007°47'1212.1
2016-May-23 12:33N 36°43' W 007°32'1212.3
2016-May-23 11:33N 36°36' W 007°19'1512.6
2016-May-23 10:22N 36°27' W 007°03'1112.4
2016-May-23 09:30N 36°21' W 006°53'7312.2
2016-May-23 03:33N 36°01' W 005°26'9 0.3
2016-May-21 17:33N 35°56' W 005°16'3 3.4
2016-May-21 16:33N 35°54' W 005°19'0 0.0
2016-May-21 15:31N 35°54' W 005°19'0 0.0
2016-May-21 14:30N 35°54' W 005°19'0 0.0
2016-May-21 13:28N 35°54' W 005°19'0 0.0
2016-May-21 12:33N 35°54' W 005°19'0 0.0
2016-May-21 11:31N 35°54' W 005°19'0 0.0
2016-May-21 10:33N 35°54' W 005°19'0 0.0
2016-May-21 09:30N 35°54' W 005°19'0 0.0
2016-May-21 08:30N 35°54' W 005°19'0 0.0
2016-May-21 07:33N 35°54' W 005°19'0 0.0
2016-May-21 06:33N 35°54' W 005°19'220 7.5
2016-May-20 01:14N 37°16' W 001°06'1117.2
2016-May-20 00:33N 37°23' W 000°54'1817.5
2016-May-19 23:33N 37°33' W 000°36'1717.4
2016-May-19 22:33N 37°43' W 000°18'2517.0
2016-May-19 21:05N 37°56' E 000°10'8017.2
2016-May-19 16:27N 38°37' E 001°36'18 1.6
2016-May-19 04:33N 38°56' E 001°34'2812.5
2016-May-19 02:21N 39°21' E 001°47'1012.6
2016-May-19 01:33N 39°31' E 001°50'1312.5
2016-May-19 00:33N 39°43' E 001°53'1312.8
2016-May-18 23:33N 39°56' E 001°55'1212.3
2016-May-18 22:33N 40°08' E 001°59'1211.9
2016-May-18 21:33N 40°20' E 002°02'1212.1
2016-May-18 20:33N 40°31' E 002°05'1212.3
2016-May-18 19:33N 40°43' E 002°08'1212.5
2016-May-18 18:33N 40°55' E 002°12'1312.6
2016-May-18 17:33N 41°08' E 002°15'1411.4
2016-May-18 16:21N 41°21' E 002°11'1 0.2
2016-May-18 11:07N 41°22' E 002°11'7 1.1
2016-May-18 04:20N 41°16' E 002°16'1214.8
2016-May-18 03:33N 41°05' E 002°17'1514.8
2016-May-18 02:33N 40°50' E 002°16'1514.5
2016-May-18 01:33N 40°35' E 002°16'1413.7
2016-May-18 00:33N 40°22' E 002°16'1313.2
2016-May-17 23:33N 40°08' E 002°15'1313.5
2016-May-17 22:33N 39°55' E 002°16'1614.2
2016-May-17 21:26N 39°39' E 002°15'1112.4
2016-May-17 20:33N 39°29' E 002°22'1110.7
2016-May-17 19:33N 39°29' E 002°35'5 4.6
2016-May-17 18:28N 39°33' E 002°38'0 0.0
2016-May-17 17:31N 39°33' E 002°38'0 0.0
2016-May-17 16:31N 39°33' E 002°38'0 0.0
2016-May-17 15:31N 39°33' E 002°38'0 0.0
2016-May-17 14:32N 39°33' E 002°38'0 0.0
2016-May-17 13:32N 39°33' E 002°38'0 0.0
2016-May-17 12:31N 39°33' E 002°38'0 0.0
2016-May-17 11:29N 39°33' E 002°38'0 0.0
2016-May-17 10:32N 39°33' E 002°38'0 0.0
2016-May-17 09:32N 39°33' E 002°38'0 0.0
2016-May-17 08:31N 39°33' E 002°38'0 0.0
2016-May-17 07:32N 39°33' E 002°38'0 0.0
2016-May-17 06:32N 39°33' E 002°38'0 0.0
2016-May-17 05:33N 39°33' E 002°38'6 6.1
2016-May-17 04:33N 39°28' E 002°34'1212.1
2016-May-17 03:33N 39°19' E 002°24'1413.5
2016-May-17 02:33N 39°08' E 002°13'1312.9
2016-May-17 01:33N 38°58' E 002°02'1312.7
2016-May-17 00:31N 38°48' E 001°51'10913.4
2016-May-16 16:24N 37°41' E 000°02'1113.5
2016-May-16 15:33N 37°34' W 000°09'1313.0
2016-May-16 14:33N 37°27' W 000°23'1812.9
2016-May-16 13:08N 37°16' W 000°41'712.7
2016-May-16 12:33N 37°11' W 000°48'1312.8
2016-May-16 11:33N 37°04' W 001°01'  

Dump ship's entire track history